HAZ2842 ZBYC-ZSHC
Flight info
| Callsign | HAZ2842 |
|---|---|
| Flight time | 1h 31m |
| Altitude | 37100 |
| Route | OML09D OMLIX W4 TAMIX B208 HFE R343 UPLEL W95 SAPIN A470 IGRAT IGRAT52 |
| Aircraft | A20N/M-SDE2E3FGHIRWXY/LB1 |
Departure
| Time | 2026-05-08 13:30 |
|---|---|
| Airport | Yuncheng Yanhu International Airport (ZBYC) |
Arrival
| Time | 2026-05-08 15:02 |
|---|---|
| Airport | Hangzhou Xiaoshan International Airport (ZSHC) |
| Time | Latitude | Longitude | Altitude | Speed | Heading |
|---|---|---|---|---|---|
| 2026-05-08 13:01 | 35.11462 | 111.03653 | 1265 ft | 0 kts | 167° |
| 2026-05-08 13:03 | 35.11452 | 111.03596 | 1265 ft | 0 kts | 167° |
| 2026-05-08 13:17 | 35.11453 | 111.03596 | 1265 ft | 1 kts | 167° |
| 2026-05-08 13:17 | 35.11467 | 111.03592 | 1265 ft | 2 kts | 167° |
| 2026-05-08 13:17 | 35.11482 | 111.03587 | 1265 ft | 1 kts | 167° |
| 2026-05-08 13:17 | 35.11492 | 111.03585 | 1265 ft | 2 kts | 158° |
| 2026-05-08 13:18 | 35.11504 | 111.03575 | 1265 ft | 2 kts | 135° |
| 2026-05-08 13:18 | 35.11513 | 111.03560 | 1265 ft | 2 kts | 114° |
| 2026-05-08 13:18 | 35.11517 | 111.03542 | 1265 ft | 2 kts | 93° |
| 2026-05-08 13:18 | 35.11517 | 111.03530 | 1265 ft | 0 kts | 79° |
| 2026-05-08 13:19 | 35.11515 | 111.03522 | 1265 ft | 0 kts | 77° |
| 2026-05-08 13:20 | 35.11520 | 111.03532 | 1265 ft | 3 kts | 49° |
| 2026-05-08 13:20 | 35.11540 | 111.03538 | 1265 ft | 3 kts | 348° |
| 2026-05-08 13:20 | 35.11564 | 111.03528 | 1265 ft | 4 kts | 346° |
| 2026-05-08 13:21 | 35.11577 | 111.03524 | 1265 ft | 0 kts | 346° |
| 2026-05-08 13:21 | 35.11586 | 111.03522 | 1265 ft | 1 kts | 347° |
| 2026-05-08 13:21 | 35.11592 | 111.03519 | 1265 ft | 0 kts | 346° |
| 2026-05-08 13:21 | 35.11603 | 111.03516 | 1264 ft | 2 kts | 347° |
| 2026-05-08 13:22 | 35.11624 | 111.03512 | 1264 ft | 3 kts | 351° |
| 2026-05-08 13:22 | 35.11651 | 111.03507 | 1264 ft | 2 kts | 348° |
| 2026-05-08 13:22 | 35.11655 | 111.03506 | 1264 ft | 0 kts | 348° |
| 2026-05-08 13:22 | 35.11657 | 111.03505 | 1264 ft | 0 kts | 347° |
| 2026-05-08 13:23 | 35.11663 | 111.03503 | 1264 ft | 0 kts | 345° |
| 2026-05-08 13:24 | 35.11671 | 111.03500 | 1264 ft | 2 kts | 345° |
| 2026-05-08 13:24 | 35.11689 | 111.03493 | 1264 ft | 3 kts | 330° |
| 2026-05-08 13:24 | 35.11703 | 111.03464 | 1264 ft | 4 kts | 276° |
| 2026-05-08 13:24 | 35.11698 | 111.03417 | 1264 ft | 6 kts | 259° |
| 2026-05-08 13:25 | 35.11689 | 111.03361 | 1264 ft | 7 kts | 257° |
| 2026-05-08 13:25 | 35.11677 | 111.03292 | 1264 ft | 8 kts | 257° |
| 2026-05-08 13:25 | 35.11663 | 111.03214 | 1264 ft | 10 kts | 257° |
| 2026-05-08 13:25 | 35.11646 | 111.03126 | 1264 ft | 10 kts | 266° |
| 2026-05-08 13:26 | 35.11632 | 111.03033 | 1263 ft | 11 kts | 257° |
| 2026-05-08 13:26 | 35.11613 | 111.02931 | 1263 ft | 12 kts | 257° |
| 2026-05-08 13:26 | 35.11593 | 111.02822 | 1263 ft | 13 kts | 258° |
| 2026-05-08 13:26 | 35.11573 | 111.02708 | 1263 ft | 14 kts | 258° |
| 2026-05-08 13:27 | 35.11554 | 111.02587 | 1263 ft | 14 kts | 259° |
| 2026-05-08 13:27 | 35.11532 | 111.02464 | 1263 ft | 15 kts | 257° |
| 2026-05-08 13:27 | 35.11509 | 111.02335 | 1263 ft | 15 kts | 258° |
| 2026-05-08 13:27 | 35.11486 | 111.02203 | 1263 ft | 15 kts | 257° |
| 2026-05-08 13:28 | 35.11461 | 111.02070 | 1262 ft | 16 kts | 256° |
| 2026-05-08 13:28 | 35.11437 | 111.01934 | 1262 ft | 16 kts | 258° |
| 2026-05-08 13:28 | 35.11413 | 111.01798 | 1262 ft | 16 kts | 259° |
| 2026-05-08 13:28 | 35.11389 | 111.01658 | 1262 ft | 16 kts | 258° |
| 2026-05-08 13:29 | 35.11372 | 111.01517 | 1262 ft | 16 kts | 288° |
| 2026-05-08 13:29 | 35.11467 | 111.01450 | 1262 ft | 16 kts | 349° |
| 2026-05-08 13:29 | 35.11538 | 111.01532 | 1262 ft | 15 kts | 75° |
| 2026-05-08 13:29 | 35.11568 | 111.01707 | 1262 ft | 43 kts | 79° |
| 2026-05-08 13:30 | 35.11681 | 111.02371 | 1263 ft | 114 kts | 77° |
| 2026-05-08 13:30 | 35.11888 | 111.03547 | 1329 ft | 161 kts | 78° |
| 2026-05-08 13:30 | 35.12155 | 111.04929 | 1698 ft | 178 kts | 78° |
| 2026-05-08 13:30 | 35.12440 | 111.06525 | 1983 ft | 207 kts | 79° |
| 2026-05-08 13:31 | 35.12756 | 111.08397 | 2147 ft | 246 kts | 79° |
| 2026-05-08 13:31 | 35.13117 | 111.10522 | 2863 ft | 259 kts | 79° |
| 2026-05-08 13:31 | 35.13472 | 111.12585 | 4069 ft | 249 kts | 79° |
| 2026-05-08 13:31 | 35.13811 | 111.14558 | 5256 ft | 238 kts | 79° |
| 2026-05-08 13:32 | 35.14132 | 111.16502 | 6277 ft | 235 kts | 84° |
| 2026-05-08 13:32 | 35.13952 | 111.18436 | 7126 ft | 236 kts | 116° |
| 2026-05-08 13:32 | 35.13038 | 111.20120 | 7809 ft | 247 kts | 127° |
| 2026-05-08 13:32 | 35.11971 | 111.21841 | 8424 ft | 262 kts | 126° |
| 2026-05-08 13:33 | 35.10858 | 111.23658 | 8983 ft | 279 kts | 125° |
| 2026-05-08 13:33 | 35.09684 | 111.25606 | 9714 ft | 288 kts | 125° |
| 2026-05-08 13:33 | 35.08496 | 111.27593 | 10524 ft | 294 kts | 124° |
| 2026-05-08 13:33 | 35.07269 | 111.29654 | 11037 ft | 311 kts | 124° |
| 2026-05-08 13:34 | 35.05969 | 111.31840 | 11474 ft | 329 kts | 124° |
| 2026-05-08 13:34 | 35.04599 | 111.34142 | 11868 ft | 347 kts | 124° |
| 2026-05-08 13:34 | 35.03198 | 111.36652 | 12336 ft | 361 kts | 120° |
| 2026-05-08 13:34 | 35.02027 | 111.39364 | 13041 ft | 366 kts | 113° |
| 2026-05-08 13:35 | 35.01104 | 111.42252 | 13793 ft | 370 kts | 108° |
| 2026-05-08 13:35 | 35.00277 | 111.45219 | 14503 ft | 374 kts | 107° |
| 2026-05-08 13:35 | 34.99454 | 111.48237 | 15175 ft | 380 kts | 107° |
| 2026-05-08 13:35 | 34.98622 | 111.51291 | 15835 ft | 385 kts | 107° |
| 2026-05-08 13:36 | 34.97772 | 111.54401 | 16491 ft | 390 kts | 107° |
| 2026-05-08 13:36 | 34.96906 | 111.57542 | 17146 ft | 395 kts | 107° |
| 2026-05-08 13:36 | 34.96028 | 111.60723 | 17779 ft | 400 kts | 107° |
| 2026-05-08 13:36 | 34.95135 | 111.63956 | 18380 ft | 405 kts | 107° |
| 2026-05-08 13:37 | 34.94231 | 111.67226 | 18934 ft | 411 kts | 107° |
| 2026-05-08 13:37 | 34.93309 | 111.70551 | 19462 ft | 417 kts | 108° |
| 2026-05-08 13:37 | 34.92386 | 111.73875 | 20002 ft | 422 kts | 108° |
| 2026-05-08 13:37 | 34.91432 | 111.77299 | 20538 ft | 427 kts | 108° |
| 2026-05-08 13:38 | 34.90480 | 111.80714 | 21034 ft | 433 kts | 108° |
| 2026-05-08 13:38 | 34.89498 | 111.84233 | 21546 ft | 438 kts | 108° |
| 2026-05-08 13:38 | 34.88555 | 111.87767 | 22030 ft | 443 kts | 103° |
| 2026-05-08 13:38 | 34.88292 | 111.91448 | 22474 ft | 443 kts | 82° |
| 2026-05-08 13:39 | 34.89044 | 111.95035 | 22947 ft | 440 kts | 63° |
| 2026-05-08 13:39 | 34.90556 | 111.98260 | 23423 ft | 441 kts | 54° |
| 2026-05-08 13:39 | 34.92204 | 112.01433 | 23824 ft | 447 kts | 54° |
| 2026-05-08 13:39 | 34.93883 | 112.04668 | 24246 ft | 452 kts | 54° |
| 2026-05-08 13:40 | 34.95555 | 112.07928 | 24704 ft | 456 kts | 54° |
| 2026-05-08 13:40 | 34.97215 | 112.11202 | 25154 ft | 459 kts | 54° |
| 2026-05-08 13:40 | 34.98887 | 112.14520 | 25570 ft | 463 kts | 54° |
| 2026-05-08 13:40 | 35.00575 | 112.17879 | 25971 ft | 467 kts | 54° |
| 2026-05-08 13:41 | 35.02265 | 112.21252 | 26330 ft | 471 kts | 54° |
| 2026-05-08 13:41 | 35.03974 | 112.24669 | 26692 ft | 475 kts | 54° |
| 2026-05-08 13:41 | 35.05705 | 112.28137 | 27061 ft | 479 kts | 54° |
| 2026-05-08 13:41 | 35.07442 | 112.31621 | 27427 ft | 482 kts | 54° |
| 2026-05-08 13:42 | 35.09181 | 112.35111 | 27776 ft | 485 kts | 54° |
| 2026-05-08 13:42 | 35.10924 | 112.38615 | 28103 ft | 489 kts | 54° |
| 2026-05-08 13:42 | 35.12700 | 112.42190 | 28431 ft | 492 kts | 54° |
| 2026-05-08 13:42 | 35.14480 | 112.45777 | 28771 ft | 495 kts | 54° |
| 2026-05-08 13:43 | 35.16269 | 112.49384 | 29069 ft | 498 kts | 54° |
| 2026-05-08 13:43 | 35.18050 | 112.52979 | 29347 ft | 501 kts | 54° |
| 2026-05-08 13:43 | 35.19864 | 112.56646 | 29717 ft | 502 kts | 53° |
| 2026-05-08 13:43 | 35.21658 | 112.60256 | 30131 ft | 502 kts | 53° |
| 2026-05-08 13:44 | 35.23494 | 112.63913 | 30556 ft | 501 kts | 53° |
| 2026-05-08 13:44 | 35.25317 | 112.67533 | 30931 ft | 501 kts | 53° |
| 2026-05-08 13:44 | 35.27122 | 112.71120 | 31218 ft | 502 kts | 53° |
| 2026-05-08 13:44 | 35.28957 | 112.74776 | 31258 ft | 503 kts | 53° |
| 2026-05-08 13:45 | 35.32615 | 112.82081 | 31258 ft | 503 kts | 53° |
| 2026-05-08 13:45 | 35.36243 | 112.89346 | 31252 ft | 503 kts | 53° |
| 2026-05-08 13:46 | 35.39883 | 112.96658 | 31247 ft | 502 kts | 53° |
| 2026-05-08 13:46 | 35.43499 | 113.03938 | 31245 ft | 503 kts | 53° |
| 2026-05-08 13:47 | 35.47134 | 113.11262 | 31247 ft | 503 kts | 53° |
| 2026-05-08 13:47 | 35.50767 | 113.18606 | 31256 ft | 504 kts | 53° |
| 2026-05-08 13:48 | 35.54383 | 113.25930 | 31270 ft | 504 kts | 53° |
| 2026-05-08 13:48 | 35.55979 | 113.29806 | 31247 ft | 514 kts | 67° |
| 2026-05-08 13:48 | 35.56598 | 113.34152 | 31263 ft | 521 kts | 88° |
| 2026-05-08 13:49 | 35.56100 | 113.38470 | 31274 ft | 518 kts | 108° |
| 2026-05-08 13:49 | 35.54526 | 113.42409 | 31280 ft | 510 kts | 129° |
| 2026-05-08 13:49 | 35.52069 | 113.45470 | 31282 ft | 501 kts | 149° |
| 2026-05-08 13:49 | 35.49015 | 113.47362 | 31285 ft | 487 kts | 169° |
| 2026-05-08 13:50 | 35.42502 | 113.49526 | 31270 ft | 484 kts | 174° |
| 2026-05-08 13:50 | 35.35909 | 113.51478 | 31246 ft | 487 kts | 171° |
| 2026-05-08 13:51 | 35.29420 | 113.53964 | 31214 ft | 490 kts | 167° |
| 2026-05-08 13:51 | 35.23026 | 113.56714 | 31192 ft | 491 kts | 166° |
| 2026-05-08 13:52 | 35.16586 | 113.59563 | 31188 ft | 490 kts | 166° |
| 2026-05-08 13:52 | 35.10186 | 113.62398 | 31191 ft | 490 kts | 166° |
| 2026-05-08 13:53 | 35.03794 | 113.65224 | 31192 ft | 490 kts | 167° |
| 2026-05-08 13:53 | 34.97390 | 113.68050 | 31194 ft | 488 kts | 167° |
| 2026-05-08 13:54 | 34.90992 | 113.70866 | 31192 ft | 488 kts | 166° |
| 2026-05-08 13:54 | 34.84577 | 113.73507 | 31196 ft | 483 kts | 171° |
| 2026-05-08 13:55 | 34.78110 | 113.75658 | 31199 ft | 482 kts | 171° |
| 2026-05-08 13:56 | 34.68427 | 113.78854 | 31198 ft | 483 kts | 171° |
| 2026-05-08 13:56 | 34.61925 | 113.81002 | 31213 ft | 481 kts | 171° |
| 2026-05-08 13:57 | 34.55542 | 113.83588 | 31209 ft | 487 kts | 163° |
| 2026-05-08 13:57 | 34.49441 | 113.87241 | 31219 ft | 494 kts | 155° |
| 2026-05-08 13:58 | 34.43758 | 113.91948 | 31216 ft | 500 kts | 147° |
| 2026-05-08 13:58 | 34.38319 | 113.97182 | 31223 ft | 500 kts | 146° |
| 2026-05-08 13:59 | 34.32864 | 114.02442 | 31215 ft | 499 kts | 146° |
| 2026-05-08 13:59 | 34.27375 | 114.07689 | 31225 ft | 499 kts | 146° |
| 2026-05-08 14:00 | 34.21927 | 114.12879 | 31216 ft | 498 kts | 146° |
| 2026-05-08 14:00 | 34.16483 | 114.18054 | 31227 ft | 497 kts | 146° |
| 2026-05-08 14:01 | 34.11063 | 114.23198 | 31220 ft | 497 kts | 146° |
| 2026-05-08 14:01 | 34.05618 | 114.28356 | 31220 ft | 498 kts | 146° |
| 2026-05-08 14:02 | 34.00947 | 114.32775 | 31231 ft | 497 kts | 146° |
| 2026-05-08 14:02 | 33.95505 | 114.37918 | 31232 ft | 497 kts | 146° |
| 2026-05-08 14:03 | 33.90066 | 114.43051 | 31232 ft | 496 kts | 146° |
| 2026-05-08 14:03 | 33.84654 | 114.48146 | 31233 ft | 496 kts | 146° |
| 2026-05-08 14:04 | 33.79224 | 114.53284 | 31235 ft | 497 kts | 146° |
| 2026-05-08 14:04 | 33.73819 | 114.58479 | 31233 ft | 497 kts | 145° |
| 2026-05-08 14:05 | 33.68482 | 114.63670 | 31233 ft | 498 kts | 143° |
| 2026-05-08 14:05 | 33.63493 | 114.69490 | 31231 ft | 502 kts | 136° |
| 2026-05-08 14:06 | 33.58875 | 114.75775 | 31234 ft | 503 kts | 134° |
| 2026-05-08 14:06 | 33.54347 | 114.82107 | 31232 ft | 503 kts | 134° |
| 2026-05-08 14:07 | 33.49800 | 114.88487 | 31232 ft | 502 kts | 134° |
| 2026-05-08 14:07 | 33.45267 | 114.94820 | 31232 ft | 502 kts | 134° |
| 2026-05-08 14:08 | 33.40711 | 115.01166 | 31234 ft | 502 kts | 134° |
| 2026-05-08 14:08 | 33.36153 | 115.07502 | 31229 ft | 502 kts | 134° |
| 2026-05-08 14:09 | 33.32228 | 115.12947 | 31234 ft | 502 kts | 134° |
| 2026-05-08 14:09 | 33.30008 | 115.16022 | 31232 ft | 502 kts | 134° |
| 2026-05-08 14:10 | 33.25433 | 115.22358 | 31236 ft | 502 kts | 134° |
| 2026-05-08 14:10 | 33.20872 | 115.28657 | 31235 ft | 502 kts | 134° |
| 2026-05-08 14:11 | 33.16312 | 115.34946 | 31236 ft | 502 kts | 134° |
| 2026-05-08 14:11 | 33.11765 | 115.41209 | 31238 ft | 502 kts | 134° |
| 2026-05-08 14:12 | 33.07190 | 115.47501 | 31240 ft | 501 kts | 134° |
| 2026-05-08 14:12 | 33.02655 | 115.53723 | 31240 ft | 501 kts | 134° |
| 2026-05-08 14:13 | 32.98066 | 115.60012 | 31240 ft | 501 kts | 134° |
| 2026-05-08 14:13 | 32.93516 | 115.66241 | 31238 ft | 501 kts | 135° |
| 2026-05-08 14:14 | 32.88936 | 115.72495 | 31247 ft | 501 kts | 135° |
| 2026-05-08 14:14 | 32.84421 | 115.78810 | 31246 ft | 502 kts | 134° |
| 2026-05-08 14:15 | 32.79958 | 115.85178 | 31244 ft | 503 kts | 134° |
| 2026-05-08 14:15 | 32.75464 | 115.91561 | 31249 ft | 504 kts | 134° |
| 2026-05-08 14:16 | 32.70953 | 115.97946 | 31251 ft | 505 kts | 134° |
| 2026-05-08 14:16 | 32.66442 | 116.04318 | 31242 ft | 504 kts | 134° |
| 2026-05-08 14:17 | 32.61951 | 116.10646 | 31252 ft | 504 kts | 134° |
| 2026-05-08 14:17 | 32.57423 | 116.17016 | 31259 ft | 504 kts | 135° |
| 2026-05-08 14:18 | 32.52953 | 116.23416 | 31253 ft | 506 kts | 133° |
| 2026-05-08 14:18 | 32.48535 | 116.29872 | 31253 ft | 505 kts | 134° |
| 2026-05-08 14:19 | 32.44115 | 116.36308 | 31261 ft | 505 kts | 134° |
| 2026-05-08 14:19 | 32.39679 | 116.42735 | 31258 ft | 506 kts | 134° |
| 2026-05-08 14:20 | 32.35223 | 116.49186 | 31263 ft | 506 kts | 134° |
| 2026-05-08 14:20 | 32.30787 | 116.55598 | 31266 ft | 506 kts | 134° |
| 2026-05-08 14:21 | 32.26339 | 116.62015 | 31261 ft | 505 kts | 134° |
| 2026-05-08 14:21 | 32.21872 | 116.68451 | 31266 ft | 505 kts | 135° |
| 2026-05-08 14:22 | 32.17401 | 116.74847 | 31263 ft | 505 kts | 136° |
| 2026-05-08 14:22 | 32.12884 | 116.81121 | 31270 ft | 506 kts | 136° |
| 2026-05-08 14:23 | 32.08333 | 116.87430 | 31268 ft | 505 kts | 136° |
| 2026-05-08 14:23 | 32.03790 | 116.93730 | 31269 ft | 505 kts | 136° |
| 2026-05-08 14:24 | 31.99239 | 117.00035 | 31279 ft | 505 kts | 136° |
| 2026-05-08 14:24 | 31.94705 | 117.06320 | 31276 ft | 505 kts | 136° |
| 2026-05-08 14:25 | 31.90168 | 117.12623 | 31276 ft | 505 kts | 136° |
| 2026-05-08 14:25 | 31.85629 | 117.18918 | 31278 ft | 505 kts | 136° |
| 2026-05-08 14:26 | 31.81307 | 117.25433 | 31267 ft | 511 kts | 128° |
| 2026-05-08 14:26 | 31.78169 | 117.32967 | 31278 ft | 517 kts | 112° |
| 2026-05-08 14:27 | 31.76582 | 117.41210 | 31270 ft | 522 kts | 98° |
| 2026-05-08 14:27 | 31.76027 | 117.49699 | 31273 ft | 524 kts | 95° |
| 2026-05-08 14:28 | 31.75524 | 117.58235 | 31275 ft | 524 kts | 95° |
| 2026-05-08 14:28 | 31.74957 | 117.66722 | 31273 ft | 524 kts | 96° |
| 2026-05-08 14:29 | 31.74355 | 117.75234 | 31275 ft | 525 kts | 97° |
| 2026-05-08 14:29 | 31.73741 | 117.83807 | 31272 ft | 526 kts | 96° |
| 2026-05-08 14:30 | 31.73130 | 117.92323 | 31281 ft | 527 kts | 97° |
| 2026-05-08 14:30 | 31.72507 | 118.00887 | 31274 ft | 527 kts | 96° |
| 2026-05-08 14:31 | 31.71878 | 118.09443 | 31276 ft | 528 kts | 97° |
| 2026-05-08 14:31 | 31.71274 | 118.17964 | 31276 ft | 527 kts | 96° |
| 2026-05-08 14:32 | 31.70383 | 118.30831 | 31276 ft | 529 kts | 96° |
| 2026-05-08 14:32 | 31.69776 | 118.39391 | 31278 ft | 529 kts | 96° |
| 2026-05-08 14:33 | 31.69166 | 118.47958 | 31283 ft | 530 kts | 96° |
| 2026-05-08 14:33 | 31.68541 | 118.56591 | 31284 ft | 531 kts | 96° |
| 2026-05-08 14:34 | 31.67917 | 118.65215 | 31284 ft | 531 kts | 97° |
| 2026-05-08 14:34 | 31.67285 | 118.73827 | 31285 ft | 531 kts | 96° |
| 2026-05-08 14:35 | 31.66645 | 118.82419 | 31288 ft | 532 kts | 96° |
| 2026-05-08 14:35 | 31.65986 | 118.90993 | 31001 ft | 518 kts | 99° |
| 2026-05-08 14:36 | 31.65185 | 118.95061 | 30277 ft | 512 kts | 112° |
| 2026-05-08 14:36 | 31.63702 | 118.98801 | 29368 ft | 507 kts | 126° |
| 2026-05-08 14:36 | 31.61622 | 119.02056 | 28453 ft | 500 kts | 140° |
| 2026-05-08 14:36 | 31.59054 | 119.04730 | 27643 ft | 490 kts | 150° |
| 2026-05-08 14:37 | 31.56334 | 119.07041 | 27096 ft | 482 kts | 152° |
| 2026-05-08 14:37 | 31.53615 | 119.09306 | 26534 ft | 477 kts | 151° |
| 2026-05-08 14:37 | 31.50917 | 119.11595 | 25958 ft | 473 kts | 150° |
| 2026-05-08 14:37 | 31.48322 | 119.13844 | 25388 ft | 469 kts | 149° |
| 2026-05-08 14:38 | 31.45717 | 119.16119 | 24784 ft | 465 kts | 149° |
| 2026-05-08 14:38 | 31.43145 | 119.18366 | 24230 ft | 461 kts | 149° |
| 2026-05-08 14:38 | 31.40594 | 119.20594 | 23685 ft | 457 kts | 149° |
| 2026-05-08 14:38 | 31.38037 | 119.22826 | 23161 ft | 452 kts | 148° |
| 2026-05-08 14:39 | 31.35529 | 119.25016 | 22623 ft | 449 kts | 148° |
| 2026-05-08 14:39 | 31.33055 | 119.27169 | 22120 ft | 445 kts | 148° |
| 2026-05-08 14:39 | 31.30578 | 119.29324 | 21607 ft | 441 kts | 147° |
| 2026-05-08 14:39 | 31.28139 | 119.31448 | 21119 ft | 437 kts | 147° |
| 2026-05-08 14:40 | 31.25714 | 119.33559 | 20606 ft | 433 kts | 147° |
| 2026-05-08 14:40 | 31.23314 | 119.35648 | 20111 ft | 429 kts | 146° |
| 2026-05-08 14:40 | 31.20924 | 119.37724 | 19622 ft | 424 kts | 146° |
| 2026-05-08 14:40 | 31.18568 | 119.39773 | 19109 ft | 420 kts | 146° |
| 2026-05-08 14:41 | 31.16248 | 119.41796 | 18609 ft | 416 kts | 145° |
| 2026-05-08 14:41 | 31.13931 | 119.43819 | 18116 ft | 412 kts | 145° |
| 2026-05-08 14:41 | 31.11656 | 119.45808 | 17619 ft | 407 kts | 145° |
| 2026-05-08 14:41 | 31.09398 | 119.47783 | 17118 ft | 404 kts | 145° |
| 2026-05-08 14:42 | 31.07181 | 119.49718 | 16608 ft | 400 kts | 144° |
| 2026-05-08 14:42 | 31.04968 | 119.51646 | 16110 ft | 396 kts | 144° |
| 2026-05-08 14:42 | 31.02748 | 119.53581 | 15621 ft | 392 kts | 144° |
| 2026-05-08 14:42 | 31.00603 | 119.55451 | 15178 ft | 387 kts | 144° |
| 2026-05-08 14:43 | 30.98434 | 119.57340 | 14864 ft | 383 kts | 143° |
| 2026-05-08 14:43 | 30.96318 | 119.59182 | 14361 ft | 381 kts | 143° |
| 2026-05-08 14:43 | 30.94193 | 119.61029 | 13827 ft | 378 kts | 143° |
| 2026-05-08 14:43 | 30.92099 | 119.62849 | 13312 ft | 375 kts | 143° |
| 2026-05-08 14:44 | 30.90022 | 119.64655 | 12833 ft | 371 kts | 142° |
| 2026-05-08 14:44 | 30.87974 | 119.66434 | 12351 ft | 367 kts | 143° |
| 2026-05-08 14:44 | 30.85950 | 119.68192 | 11849 ft | 364 kts | 143° |
| 2026-05-08 14:44 | 30.83895 | 119.69978 | 11350 ft | 360 kts | 143° |
| 2026-05-08 14:45 | 30.81897 | 119.71712 | 10872 ft | 355 kts | 142° |
| 2026-05-08 14:45 | 30.79920 | 119.73426 | 10426 ft | 350 kts | 142° |
| 2026-05-08 14:45 | 30.77982 | 119.75105 | 10216 ft | 337 kts | 142° |
| 2026-05-08 14:45 | 30.76132 | 119.76708 | 10012 ft | 326 kts | 142° |
| 2026-05-08 14:46 | 30.74351 | 119.78247 | 9862 ft | 313 kts | 142° |
| 2026-05-08 14:46 | 30.72643 | 119.79724 | 9846 ft | 296 kts | 142° |
| 2026-05-08 14:46 | 30.71004 | 119.81155 | 9848 ft | 294 kts | 141° |
| 2026-05-08 14:46 | 30.69406 | 119.82606 | 9723 ft | 289 kts | 141° |
| 2026-05-08 14:47 | 30.67833 | 119.84050 | 9327 ft | 289 kts | 141° |
| 2026-05-08 14:47 | 30.66269 | 119.85481 | 8940 ft | 288 kts | 141° |
| 2026-05-08 14:47 | 30.64652 | 119.86857 | 8586 ft | 285 kts | 144° |
| 2026-05-08 14:47 | 30.62983 | 119.88115 | 8240 ft | 282 kts | 147° |
| 2026-05-08 14:48 | 30.61306 | 119.89230 | 7905 ft | 279 kts | 149° |
| 2026-05-08 14:48 | 30.59602 | 119.90311 | 7558 ft | 276 kts | 149° |
| 2026-05-08 14:48 | 30.57912 | 119.91384 | 7208 ft | 273 kts | 149° |
| 2026-05-08 14:48 | 30.56253 | 119.92438 | 6855 ft | 271 kts | 149° |
| 2026-05-08 14:49 | 30.54612 | 119.93478 | 6504 ft | 268 kts | 149° |
| 2026-05-08 14:49 | 30.52998 | 119.94501 | 6155 ft | 265 kts | 149° |
| 2026-05-08 14:49 | 30.51381 | 119.95530 | 5875 ft | 262 kts | 149° |
| 2026-05-08 14:49 | 30.49774 | 119.96550 | 5853 ft | 264 kts | 149° |
| 2026-05-08 14:50 | 30.48166 | 119.97571 | 5851 ft | 265 kts | 149° |
| 2026-05-08 14:50 | 30.46529 | 119.98608 | 5850 ft | 265 kts | 149° |
| 2026-05-08 14:50 | 30.44912 | 119.99629 | 5852 ft | 264 kts | 149° |
| 2026-05-08 14:50 | 30.43299 | 120.00650 | 5848 ft | 263 kts | 149° |
| 2026-05-08 14:51 | 30.41710 | 120.01655 | 5612 ft | 260 kts | 149° |
| 2026-05-08 14:51 | 30.40112 | 120.02667 | 5195 ft | 261 kts | 148° |
| 2026-05-08 14:51 | 30.38529 | 120.03668 | 4837 ft | 258 kts | 148° |
| 2026-05-08 14:51 | 30.36964 | 120.04658 | 4483 ft | 256 kts | 148° |
| 2026-05-08 14:52 | 30.35391 | 120.05655 | 4103 ft | 255 kts | 148° |
| 2026-05-08 14:52 | 30.32202 | 120.07430 | 3952 ft | 257 kts | 160° |
| 2026-05-08 14:52 | 30.30467 | 120.07958 | 3955 ft | 258 kts | 163° |
| 2026-05-08 14:53 | 30.28719 | 120.08434 | 3955 ft | 259 kts | 164° |
| 2026-05-08 14:53 | 30.26956 | 120.08903 | 3956 ft | 259 kts | 164° |
| 2026-05-08 14:53 | 30.25230 | 120.09364 | 3947 ft | 250 kts | 163° |
| 2026-05-08 14:53 | 30.23583 | 120.09792 | 3888 ft | 235 kts | 164° |
| 2026-05-08 14:54 | 30.22033 | 120.10188 | 3607 ft | 219 kts | 163° |
| 2026-05-08 14:54 | 30.20594 | 120.10545 | 3350 ft | 206 kts | 164° |
| 2026-05-08 14:54 | 30.19213 | 120.10874 | 3145 ft | 194 kts | 164° |
| 2026-05-08 14:54 | 30.17957 | 120.11158 | 3017 ft | 177 kts | 164° |
| 2026-05-08 14:55 | 30.16730 | 120.11441 | 2991 ft | 181 kts | 164° |
| 2026-05-08 14:55 | 30.15554 | 120.11893 | 2955 ft | 176 kts | 142° |
| 2026-05-08 14:55 | 30.14890 | 120.13017 | 2959 ft | 173 kts | 105° |
| 2026-05-08 14:55 | 30.14722 | 120.14404 | 2970 ft | 173 kts | 95° |
| 2026-05-08 14:56 | 30.14646 | 120.15797 | 2960 ft | 173 kts | 91° |
| 2026-05-08 14:56 | 30.14736 | 120.17168 | 2950 ft | 169 kts | 84° |
| 2026-05-08 14:56 | 30.14871 | 120.18498 | 2946 ft | 164 kts | 84° |
| 2026-05-08 14:56 | 30.15018 | 120.19796 | 2953 ft | 162 kts | 82° |
| 2026-05-08 14:57 | 30.15276 | 120.21061 | 2960 ft | 162 kts | 74° |
| 2026-05-08 14:57 | 30.15668 | 120.22281 | 2957 ft | 163 kts | 69° |
| 2026-05-08 14:57 | 30.16151 | 120.23474 | 2953 ft | 163 kts | 66° |
| 2026-05-08 14:57 | 30.16661 | 120.24642 | 2948 ft | 163 kts | 65° |
| 2026-05-08 14:58 | 30.17177 | 120.25809 | 2845 ft | 164 kts | 65° |
| 2026-05-08 14:58 | 30.17698 | 120.26984 | 2636 ft | 164 kts | 65° |
| 2026-05-08 14:58 | 30.18219 | 120.28162 | 2424 ft | 165 kts | 65° |
| 2026-05-08 14:58 | 30.18741 | 120.29345 | 2207 ft | 164 kts | 65° |
| 2026-05-08 14:59 | 30.19260 | 120.30521 | 1988 ft | 164 kts | 65° |
| 2026-05-08 14:59 | 30.20308 | 120.32890 | 1544 ft | 160 kts | 65° |
| 2026-05-08 14:59 | 30.20793 | 120.33984 | 1315 ft | 145 kts | 65° |
| 2026-05-08 15:00 | 30.21232 | 120.34974 | 1115 ft | 135 kts | 65° |
| 2026-05-08 15:00 | 30.21661 | 120.35949 | 961 ft | 135 kts | 64° |
| 2026-05-08 15:00 | 30.22088 | 120.36914 | 788 ft | 135 kts | 65° |
| 2026-05-08 15:00 | 30.22521 | 120.37893 | 616 ft | 137 kts | 64° |
| 2026-05-08 15:01 | 30.22953 | 120.38869 | 433 ft | 136 kts | 64° |
| 2026-05-08 15:01 | 30.23387 | 120.39849 | 249 ft | 137 kts | 64° |
| 2026-05-08 15:01 | 30.23820 | 120.40810 | 97 ft | 137 kts | 63° |
| 2026-05-08 15:01 | 30.24243 | 120.41775 | 40 ft | 124 kts | 64° |
| 2026-05-08 15:02 | 30.24551 | 120.42493 | 29 ft | 72 kts | 62° |
| 2026-05-08 15:02 | 30.24707 | 120.42911 | 29 ft | 45 kts | 76° |
| 2026-05-08 15:02 | 30.24726 | 120.43102 | 29 ft | 6 kts | 91° |
| 2026-05-08 15:02 | 30.24725 | 120.43115 | 29 ft | 0 kts | 91° |
| 2026-05-08 15:03 | 30.24725 | 120.43124 | 29 ft | 2 kts | 92° |
| 2026-05-08 15:03 | 30.24717 | 120.43143 | 29 ft | 3 kts | 135° |
| 2026-05-08 15:03 | 30.24688 | 120.43153 | 29 ft | 5 kts | 176° |
| 2026-05-08 15:03 | 30.24652 | 120.43138 | 29 ft | 6 kts | 225° |
| 2026-05-08 15:04 | 30.24628 | 120.43087 | 29 ft | 8 kts | 244° |
| 2026-05-08 15:04 | 30.24600 | 120.43023 | 29 ft | 9 kts | 244° |
| 2026-05-08 15:04 | 30.24566 | 120.42949 | 29 ft | 11 kts | 241° |
| 2026-05-08 15:04 | 30.24529 | 120.42865 | 29 ft | 11 kts | 244° |
| 2026-05-08 15:05 | 30.24503 | 120.42806 | 29 ft | 6 kts | 240° |
| 2026-05-08 15:05 | 30.24473 | 120.42761 | 29 ft | 7 kts | 210° |
| 2026-05-08 15:05 | 30.24419 | 120.42765 | 29 ft | 8 kts | 160° |
| 2026-05-08 15:05 | 30.24376 | 120.42790 | 29 ft | 5 kts | 150° |
| 2026-05-08 15:06 | 30.24339 | 120.42808 | 29 ft | 6 kts | 173° |
| 2026-05-08 15:06 | 30.24291 | 120.42796 | 29 ft | 7 kts | 187° |
| 2026-05-08 15:06 | 30.24236 | 120.42818 | 29 ft | 9 kts | 152° |
| 2026-05-08 15:06 | 30.24181 | 120.42852 | 29 ft | 7 kts | 150° |
| 2026-05-08 15:07 | 30.24132 | 120.42880 | 29 ft | 8 kts | 154° |
| 2026-05-08 15:07 | 30.24093 | 120.42900 | 29 ft | 3 kts | 180° |
| 2026-05-08 15:07 | 30.24070 | 120.42873 | 29 ft | 5 kts | 242° |
| 2026-05-08 15:07 | 30.24059 | 120.42850 | 29 ft | 1 kts | 242° |
| 2026-05-08 15:08 | 30.24058 | 120.42847 | 29 ft | 0 kts | 242° |